createdAt,value
2023-03-30T00:00:34.728Z,16.3
2023-03-30T00:01:36.835Z,16.2
2023-03-30T00:02:39.129Z,16.3
2023-03-30T00:03:41.717Z,16.3
2023-03-30T00:04:44.692Z,16.3
2023-03-30T00:05:47.278Z,16.3
2023-03-30T00:06:48.970Z,16.3
2023-03-30T00:07:50.838Z,16.3
2023-03-30T00:08:52.992Z,16.3
2023-03-30T00:09:55.384Z,16.4
2023-03-30T00:10:57.273Z,16.3
2023-03-30T00:11:59.146Z,16.3
2023-03-30T00:13:01.277Z,16.4
2023-03-30T00:14:03.441Z,16.3
2023-03-30T00:15:05.578Z,16.3
2023-03-30T00:16:07.657Z,16.3
2023-03-30T00:17:10.014Z,16.3
2023-03-30T00:18:11.952Z,16.3
2023-03-30T00:19:14.033Z,16.3
2023-03-30T00:20:16.158Z,16.3
2023-03-30T00:21:18.818Z,16.2
2023-03-30T00:22:20.695Z,16.3
2023-03-30T00:23:22.366Z,16.3
2023-03-30T00:24:24.449Z,16.3
2023-03-30T00:25:26.529Z,16.3
2023-03-30T00:26:28.460Z,16.4
2023-03-30T00:27:30.622Z,16.3
2023-03-30T00:28:32.499Z,16.3
2023-03-30T00:29:34.523Z,16.3
2023-03-30T00:30:36.794Z,16.4
2023-03-30T00:31:38.989Z,16.4
2023-03-30T00:32:41.248Z,16.4
2023-03-30T00:34:48.577Z,16.4
2023-03-30T00:35:50.384Z,16.4
2023-03-30T00:36:52.355Z,16.3
2023-03-30T00:37:54.574Z,16.4
2023-03-30T00:38:56.660Z,16.4
2023-03-30T00:39:58.747Z,16.4
2023-03-30T00:41:01.155Z,16.3
2023-03-30T00:42:04.234Z,16.3
2023-03-30T00:43:06.353Z,16.3
2023-03-30T00:44:08.458Z,16.4
2023-03-30T00:45:10.434Z,16.3
2023-03-30T00:46:13.138Z,16.4
2023-03-30T00:47:15.331Z,16.3
2023-03-30T00:48:17.178Z,16.3
2023-03-30T00:49:18.986Z,16.4
2023-03-30T00:50:20.728Z,16.4
2023-03-30T00:51:22.625Z,16.4
2023-03-30T00:52:24.684Z,16.5
2023-03-30T00:53:26.838Z,16.4
2023-03-30T00:54:28.930Z,16.3
2023-03-30T00:55:30.903Z,16.4
2023-03-30T00:56:32.970Z,16.3
2023-03-30T00:57:35.097Z,16.4
2023-03-30T00:58:37.215Z,16.4
2023-03-30T00:59:38.985Z,16.4
2023-03-30T01:00:41.003Z,16.3
2023-03-30T01:01:43.388Z,16.5
2023-03-30T01:02:45.510Z,16.4
2023-03-30T01:03:48.781Z,16.4
2023-03-30T01:04:51.372Z,16.5
2023-03-30T01:05:53.537Z,16.5
2023-03-30T01:06:55.441Z,16.3
2023-03-30T01:07:57.330Z,16.3
2023-03-30T01:08:59.247Z,16.4
2023-03-30T01:10:01.173Z,16.5
2023-03-30T01:11:03.409Z,16.4
2023-03-30T01:12:06.393Z,16.5
2023-03-30T01:13:08.290Z,16.4
2023-03-30T01:14:10.426Z,16.4
2023-03-30T01:15:12.558Z,16.5
2023-03-30T01:16:14.575Z,16.4
2023-03-30T01:17:16.956Z,16.4
2023-03-30T01:18:19.183Z,16.5
2023-03-30T01:19:21.269Z,16.5
2023-03-30T01:20:23.368Z,16.5
2023-03-30T01:21:25.436Z,16.5
2023-03-30T01:22:26.931Z,16.5
2023-03-30T01:23:28.918Z,16.4
2023-03-30T01:24:31.000Z,16.5
2023-03-30T01:25:33.101Z,16.4
2023-03-30T01:26:35.193Z,16.4
2023-03-30T01:27:37.263Z,16.4
2023-03-30T01:28:39.153Z,16.5
2023-03-30T01:29:41.292Z,16.3
2023-03-30T01:30:43.214Z,16.3
2023-03-30T01:31:45.490Z,16.4
2023-03-30T01:32:48.031Z,16.4
2023-03-30T01:33:50.169Z,16.4
2023-03-30T01:34:52.297Z,16.4
2023-03-30T01:35:54.621Z,16.4
2023-03-30T01:36:57.088Z,16.4
2023-03-30T01:37:59.178Z,16.5
2023-03-30T01:39:01.271Z,16.4
2023-03-30T01:40:03.166Z,16.4
2023-03-30T01:41:05.765Z,16.6
2023-03-30T01:42:08.166Z,16.5
2023-03-30T01:43:10.088Z,16.5
2023-03-30T01:44:12.209Z,16.4
2023-03-30T01:45:14.296Z,16.5
2023-03-30T01:46:16.476Z,16.5
2023-03-30T01:47:19.200Z,16.5
2023-03-30T01:48:21.482Z,16.5
2023-03-30T01:49:23.395Z,16.5
2023-03-30T01:50:25.285Z,16.4
2023-03-30T01:51:27.166Z,16.5
2023-03-30T01:52:29.333Z,16.6
2023-03-30T01:53:31.418Z,16.5
2023-03-30T01:54:33.619Z,16.6
2023-03-30T01:55:35.699Z,16.5
2023-03-30T01:56:37.854Z,16.5
2023-03-30T01:57:39.993Z,16.5
2023-03-30T01:58:42.135Z,16.5
2023-03-30T01:59:44.238Z,16.4
2023-03-30T02:00:46.317Z,16.4
2023-03-30T02:01:48.052Z,16.5
2023-03-30T02:02:50.485Z,16.5
2023-03-30T02:03:52.980Z,16.6
2023-03-30T02:04:55.482Z,16.5
2023-03-30T02:05:57.368Z,16.4
2023-03-30T02:06:59.253Z,16.5
2023-03-30T02:08:01.347Z,16.5
2023-03-30T02:09:03.245Z,16.5
2023-03-30T02:10:05.367Z,16.5
2023-03-30T02:11:07.770Z,16.5
2023-03-30T02:12:09.679Z,16.5
2023-03-30T02:13:11.390Z,16.6
2023-03-30T02:14:13.296Z,16.6
2023-03-30T02:15:15.208Z,16.5
2023-03-30T02:16:17.434Z,16.5
2023-03-30T02:17:19.295Z,16.5
2023-03-30T02:18:21.416Z,16.5
2023-03-30T02:19:23.588Z,16.4
2023-03-30T02:20:25.683Z,16.5
2023-03-30T02:21:27.750Z,16.6
2023-03-30T02:22:29.913Z,16.6
2023-03-30T02:23:31.805Z,16.5
2023-03-30T02:24:33.514Z,16.5
2023-03-30T02:25:35.595Z,16.6
2023-03-30T02:26:37.509Z,16.5
2023-03-30T02:27:39.190Z,16.5
2023-03-30T02:28:41.133Z,16.5
2023-03-30T02:29:43.106Z,16.6
2023-03-30T02:30:44.995Z,16.4
2023-03-30T02:31:47.056Z,16.5
2023-03-30T02:32:49.238Z,16.5
2023-03-30T02:33:51.655Z,16.4
2023-03-30T02:34:53.832Z,16.5
2023-03-30T02:35:55.577Z,16.6
2023-03-30T02:36:57.908Z,16.5
2023-03-30T02:38:00.000Z,16.5
2023-03-30T02:39:02.119Z,16.6
2023-03-30T02:40:04.204Z,16.7
2023-03-30T02:41:06.452Z,16.5
2023-03-30T02:42:08.426Z,16.6
2023-03-30T02:43:10.310Z,16.6
2023-03-30T02:44:11.610Z,16.5
2023-03-30T02:45:13.504Z,16.5
2023-03-30T02:46:15.860Z,16.6
2023-03-30T02:47:18.255Z,16.6
2023-03-30T02:48:20.328Z,16.6
2023-03-30T02:49:22.472Z,16.5
2023-03-30T02:50:24.638Z,16.5
2023-03-30T02:51:26.716Z,16.5
2023-03-30T02:52:28.603Z,16.5
2023-03-30T02:53:30.503Z,16.6
2023-03-30T02:54:32.633Z,16.6
2023-03-30T02:55:34.325Z,16.5
2023-03-30T02:56:36.101Z,16.5
2023-03-30T02:57:38.194Z,16.6
2023-03-30T02:58:40.069Z,16.5
2023-03-30T02:59:42.173Z,16.6
2023-03-30T03:00:44.070Z,16.7
2023-03-30T03:01:46.179Z,16.6
2023-03-30T03:02:48.377Z,16.6
2023-03-30T03:03:50.595Z,16.6
2023-03-30T03:04:52.795Z,16.7
2023-03-30T03:05:54.974Z,16.6
2023-03-30T03:06:57.166Z,16.6
2023-03-30T03:07:58.661Z,16.7
2023-03-30T03:09:00.689Z,16.6
2023-03-30T03:10:02.865Z,16.6
2023-03-30T03:11:05.362Z,16.6
2023-03-30T03:12:08.735Z,16.5
2023-03-30T03:13:10.852Z,16.5
2023-03-30T03:14:12.758Z,16.5
2023-03-30T03:15:14.454Z,16.5
2023-03-30T03:16:16.355Z,16.5
2023-03-30T03:17:18.549Z,16.5
2023-03-30T03:18:20.635Z,16.6
2023-03-30T03:19:22.698Z,16.5
2023-03-30T03:20:24.676Z,16.4
2023-03-30T03:21:26.816Z,16.4
2023-03-30T03:22:28.905Z,16.6
2023-03-30T03:23:30.996Z,16.5
2023-03-30T03:24:32.910Z,16.6
2023-03-30T03:25:34.616Z,16.5
2023-03-30T03:26:36.711Z,16.5
2023-03-30T03:27:38.824Z,16.5
2023-03-30T03:28:40.877Z,16.6
2023-03-30T03:29:42.759Z,16.4
2023-03-30T03:30:44.704Z,16.6
2023-03-30T03:31:46.875Z,16.4
2023-03-30T03:32:49.077Z,16.5
2023-03-30T03:33:51.163Z,16.5
2023-03-30T03:34:53.073Z,16.4
2023-03-30T03:35:55.370Z,16.6
2023-03-30T03:36:57.769Z,16.5
2023-03-30T03:37:59.679Z,16.4
2023-03-30T03:39:01.407Z,16.5
2023-03-30T03:40:03.567Z,16.4
2023-03-30T03:41:06.614Z,16.5
2023-03-30T03:42:09.059Z,16.4
2023-03-30T03:43:11.192Z,16.5
2023-03-30T03:44:13.278Z,16.4
2023-03-30T03:45:15.360Z,16.4
2023-03-30T03:46:17.571Z,16.5
2023-03-30T03:47:19.835Z,16.5
2023-03-30T03:48:22.218Z,16.4
2023-03-30T03:49:24.404Z,16.5
2023-03-30T03:50:26.539Z,16.5
2023-03-30T03:51:28.670Z,16.5
2023-03-30T03:52:30.831Z,16.5
2023-03-30T03:53:32.915Z,16.4
2023-03-30T03:54:34.632Z,16.4
2023-03-30T03:55:36.771Z,16.4
2023-03-30T03:56:38.925Z,16.5
2023-03-30T03:57:41.222Z,16.4
2023-03-30T03:58:42.931Z,16.4
2023-03-30T03:59:44.848Z,16.4
2023-03-30T04:00:47.082Z,16.5
2023-03-30T04:01:49.281Z,16.4
2023-03-30T04:02:51.667Z,16.3
2023-03-30T04:03:53.807Z,16.5
2023-03-30T04:04:55.985Z,16.3
2023-03-30T04:05:58.285Z,16.5
2023-03-30T04:07:00.240Z,16.4
2023-03-30T04:08:02.438Z,16.4
2023-03-30T04:09:04.363Z,16.3
2023-03-30T04:10:06.262Z,16.3
2023-03-30T04:11:08.438Z,16.4
2023-03-30T04:12:10.194Z,16.5
2023-03-30T04:13:12.081Z,16.3
2023-03-30T04:14:14.009Z,16.3
2023-03-30T04:15:15.709Z,16.3
2023-03-30T04:16:17.464Z,16.4
2023-03-30T04:17:19.721Z,16.3
2023-03-30T04:18:21.653Z,16.3
2023-03-30T04:19:23.747Z,16.4
2023-03-30T04:20:25.845Z,16.3
2023-03-30T04:21:27.767Z,16.2
2023-03-30T04:22:29.686Z,16.3
2023-03-30T04:23:31.874Z,16.5
2023-03-30T04:24:33.964Z,16.3
2023-03-30T04:25:36.063Z,16.4
2023-03-30T04:26:37.980Z,16.3
2023-03-30T04:27:40.181Z,16.4
2023-03-30T04:28:41.892Z,16.4
2023-03-30T04:29:43.770Z,16.3
2023-03-30T04:30:45.724Z,16.4
2023-03-30T04:31:48.094Z,16.4
2023-03-30T04:32:50.454Z,16.3
2023-03-30T04:33:52.765Z,16.4
2023-03-30T04:34:54.755Z,16.3
2023-03-30T04:35:57.198Z,16.4
2023-03-30T04:36:59.458Z,16.4
2023-03-30T04:38:01.459Z,16.3
2023-03-30T04:39:04.048Z,16.3
2023-03-30T04:40:06.162Z,16.3
2023-03-30T04:41:08.057Z,16.3
2023-03-30T04:42:10.138Z,16.4
2023-03-30T04:43:12.047Z,16.3
2023-03-30T04:44:14.183Z,16.4
2023-03-30T04:45:16.277Z,16.3
2023-03-30T04:46:18.276Z,16.3
2023-03-30T04:47:20.705Z,16.3
2023-03-30T04:48:22.689Z,16.3
2023-03-30T04:49:24.908Z,16.3
2023-03-30T04:50:26.983Z,16.4
2023-03-30T04:51:28.703Z,16.4
2023-03-30T04:52:30.802Z,16.3
2023-03-30T04:53:32.771Z,16.4
2023-03-30T04:54:34.936Z,16.3
2023-03-30T04:55:36.628Z,16.3
2023-03-30T04:56:38.523Z,16.3
2023-03-30T04:57:40.598Z,16.3
2023-03-30T04:58:42.480Z,16.4
2023-03-30T04:59:44.549Z,16.2
2023-03-30T05:00:46.632Z,16.2
2023-03-30T05:01:49.097Z,16.4
2023-03-30T05:02:51.745Z,16.2
2023-03-30T05:03:54.413Z,16.3
2023-03-30T05:04:56.656Z,16.2
2023-03-30T05:05:58.562Z,16.4
2023-03-30T05:07:00.672Z,16.3
2023-03-30T05:08:02.749Z,16.4
2023-03-30T05:09:04.754Z,16.3
2023-03-30T05:10:07.112Z,16.3
2023-03-30T05:11:09.035Z,16.3
2023-03-30T05:12:10.992Z,16.4
2023-03-30T05:13:12.869Z,16.3
2023-03-30T05:14:14.957Z,16.4
2023-03-30T05:15:16.912Z,16.4
2023-03-30T05:16:18.896Z,16.3
2023-03-30T05:17:21.185Z,16.3
2023-03-30T05:18:23.239Z,16.3
2023-03-30T05:19:25.312Z,16.3
2023-03-30T05:20:27.510Z,16.2
2023-03-30T05:21:29.611Z,16.3
2023-03-30T05:22:31.493Z,16.3
2023-03-30T05:23:33.394Z,16.2
2023-03-30T05:24:35.152Z,16.3
2023-03-30T05:25:37.433Z,16.3
2023-03-30T05:26:39.512Z,16.3
2023-03-30T05:27:41.653Z,16.4
2023-03-30T05:28:43.744Z,16.3
2023-03-30T05:29:45.872Z,16.3
2023-03-30T05:30:47.944Z,16.3
2023-03-30T05:31:50.087Z,16.3
2023-03-30T05:32:52.113Z,16.3
2023-03-30T05:33:54.255Z,16.3
2023-03-30T05:34:56.442Z,16.3
2023-03-30T05:35:58.502Z,16.2
2023-03-30T05:37:00.581Z,16.2
2023-03-30T05:38:02.326Z,16.2
2023-03-30T05:39:04.209Z,16.3
2023-03-30T05:40:06.221Z,16.3
2023-03-30T05:41:08.440Z,16.3
2023-03-30T05:42:10.345Z,16.2
2023-03-30T05:43:12.333Z,16.2
2023-03-30T05:44:14.264Z,16.2
2023-03-30T05:45:16.165Z,16.2
2023-03-30T05:46:18.386Z,16.2
2023-03-30T05:47:20.652Z,16.3
2023-03-30T05:48:22.507Z,16.3
2023-03-30T05:49:24.402Z,16.2
2023-03-30T05:50:26.294Z,16.2
2023-03-30T05:51:28.021Z,16.2
2023-03-30T05:52:30.142Z,16.2
2023-03-30T05:53:32.231Z,16.2
2023-03-30T05:54:34.156Z,16.3
2023-03-30T05:55:35.897Z,16.2
2023-03-30T05:56:38.045Z,16.2
2023-03-30T05:57:39.952Z,16.2
2023-03-30T05:58:42.131Z,16.3
2023-03-30T05:59:44.223Z,16.3
2023-03-30T06:00:46.291Z,16.3
2023-03-30T06:01:48.391Z,16.3
2023-03-30T06:02:50.656Z,16.3
2023-03-30T06:03:53.195Z,16.3
2023-03-30T06:04:56.142Z,16.3
2023-03-30T06:05:58.497Z,16.2
2023-03-30T06:07:00.668Z,16.2
2023-03-30T06:08:02.779Z,16.3
2023-03-30T06:09:04.925Z,16.2
2023-03-30T06:10:06.628Z,16.3
2023-03-30T06:11:08.816Z,16.3
2023-03-30T06:12:11.021Z,16.3
2023-03-30T06:13:12.922Z,16.2
2023-03-30T06:14:15.129Z,16.3
2023-03-30T06:15:17.068Z,16.2
2023-03-30T06:16:19.425Z,16.2
2023-03-30T06:17:21.710Z,16.2
2023-03-30T06:18:23.816Z,16.3
2023-03-30T06:19:25.929Z,16.2
2023-03-30T06:20:28.121Z,16.2
2023-03-30T06:21:30.016Z,16.2
2023-03-30T06:22:32.454Z,16.2
2023-03-30T06:23:34.534Z,16.2
2023-03-30T06:24:36.427Z,16.2
2023-03-30T06:25:38.508Z,16.2
2023-03-30T06:26:40.473Z,16.2
2023-03-30T06:28:47.683Z,16.2
2023-03-30T06:29:49.208Z,16.2
2023-03-30T06:30:51.309Z,16.3
2023-03-30T06:31:53.381Z,16.2
2023-03-30T06:32:55.948Z,16.3
2023-03-30T06:33:58.105Z,16.2
2023-03-30T06:35:00.190Z,16.2
2023-03-30T06:36:02.186Z,16.2
2023-03-30T06:37:04.097Z,16.2
2023-03-30T06:38:06.189Z,16.2
2023-03-30T06:39:08.018Z,16.2
2023-03-30T06:40:10.130Z,16.3
2023-03-30T06:41:12.362Z,16.3
2023-03-30T06:42:14.407Z,16.3
2023-03-30T06:43:16.645Z,16.3
2023-03-30T06:44:18.825Z,16.3
2023-03-30T06:45:20.956Z,16.3
2023-03-30T06:46:22.949Z,16.3
2023-03-30T06:47:25.880Z,16.3
2023-03-30T06:48:28.218Z,16.2
2023-03-30T06:49:30.129Z,16.3
2023-03-30T06:50:32.213Z,16.3
2023-03-30T06:51:34.110Z,16.3
2023-03-30T06:52:36.009Z,16.2
2023-03-30T06:53:38.151Z,16.3
2023-03-30T06:54:40.247Z,16.2
2023-03-30T06:55:42.745Z,16.2
2023-03-30T06:56:44.898Z,16.3
2023-03-30T06:57:47.204Z,16.2
2023-03-30T06:58:49.366Z,16.2
2023-03-30T06:59:51.453Z,16.3
2023-03-30T07:00:53.408Z,16.2
2023-03-30T07:01:55.460Z,16.2
2023-03-30T07:02:58.042Z,16.2
2023-03-30T07:04:00.457Z,16.2
2023-03-30T07:05:02.767Z,16.1
2023-03-30T07:06:04.457Z,16.2
2023-03-30T07:07:06.578Z,16.2
2023-03-30T07:08:08.688Z,16.2
2023-03-30T07:09:10.591Z,16.2
2023-03-30T07:10:13.070Z,16.2
2023-03-30T07:11:15.175Z,16.2
2023-03-30T07:12:17.366Z,16.2
2023-03-30T07:13:19.349Z,16.2
2023-03-30T07:14:21.545Z,16.2
2023-03-30T07:15:23.440Z,16.2
2023-03-30T07:16:25.708Z,16.3
2023-03-30T07:17:28.325Z,16.2
2023-03-30T07:18:30.537Z,16.1
2023-03-30T07:19:32.829Z,16.1
2023-03-30T07:20:34.785Z,16.2
2023-03-30T07:21:36.699Z,16.2
2023-03-30T07:22:38.633Z,16.2
2023-03-30T07:23:40.547Z,16.2
2023-03-30T07:24:42.258Z,16.2
2023-03-30T07:25:44.524Z,16.2
2023-03-30T07:26:46.209Z,16.3
2023-03-30T07:27:48.017Z,16.3
2023-03-30T07:28:50.186Z,16.2
2023-03-30T07:29:52.418Z,16.2
2023-03-30T07:30:54.457Z,16.2
2023-03-30T07:31:56.787Z,16.2
2023-03-30T07:32:59.481Z,16.2
2023-03-30T07:34:02.103Z,16.1
2023-03-30T07:35:04.241Z,16.1
2023-03-30T07:36:06.403Z,16.2
2023-03-30T07:37:08.718Z,16.2
2023-03-30T07:38:10.812Z,16.2
2023-03-30T07:39:12.515Z,16.2
2023-03-30T07:40:14.500Z,16.1
2023-03-30T07:41:16.846Z,16.2
2023-03-30T07:42:18.857Z,16.2
2023-03-30T07:43:20.770Z,16.1
2023-03-30T07:44:22.974Z,16.1
2023-03-30T07:45:25.168Z,16.2
2023-03-30T07:46:27.215Z,16.1
2023-03-30T07:47:29.550Z,16.2
2023-03-30T07:48:31.747Z,16.1
2023-03-30T07:50:41.960Z,16.2
2023-03-30T07:51:44.774Z,16.1
2023-03-30T07:52:46.880Z,16.2
2023-03-30T07:53:48.651Z,16.1
2023-03-30T07:54:50.741Z,16.2
2023-03-30T07:55:52.442Z,16.2
2023-03-30T07:56:54.046Z,16.2
2023-03-30T07:57:56.324Z,16.1
2023-03-30T08:00:03.086Z,16.2
2023-03-30T08:01:06.034Z,16.2
2023-03-30T08:02:08.648Z,16.2
2023-03-30T08:03:11.004Z,16.1
2023-03-30T08:04:13.926Z,16.1
2023-03-30T08:05:16.569Z,16.1
2023-03-30T08:06:19.107Z,16.2
2023-03-30T08:07:21.228Z,16.1
2023-03-30T08:08:23.339Z,16.2
2023-03-30T08:09:25.467Z,16.2
2023-03-30T08:10:27.560Z,16.2
2023-03-30T08:11:29.450Z,16.1
2023-03-30T08:12:31.569Z,16.3
2023-03-30T08:13:33.317Z,16.2
2023-03-30T08:14:35.025Z,16.2
2023-03-30T08:15:37.162Z,16.2
2023-03-30T08:16:39.657Z,16.2
2023-03-30T08:17:42.114Z,16.2
2023-03-30T08:18:44.428Z,16.3
2023-03-30T08:19:46.330Z,16.2
2023-03-30T08:20:48.534Z,16.2
2023-03-30T08:21:50.438Z,16.2
2023-03-30T08:22:52.571Z,16.1
2023-03-30T08:23:54.327Z,16.1
2023-03-30T08:24:56.047Z,16.1
2023-03-30T08:25:58.201Z,16.2
2023-03-30T08:27:00.404Z,16.2
2023-03-30T08:28:02.753Z,16.2
2023-03-30T08:29:04.897Z,16.2
2023-03-30T08:30:07.003Z,16.2
2023-03-30T08:31:09.284Z,16.1
2023-03-30T08:32:11.744Z,16.2
2023-03-30T08:33:13.754Z,16.3
2023-03-30T08:34:15.909Z,16.2
2023-03-30T08:35:18.010Z,16.1
2023-03-30T08:36:20.098Z,16.1
2023-03-30T08:37:21.971Z,16.1
2023-03-30T08:38:24.050Z,16.2
2023-03-30T08:39:26.169Z,16.2
2023-03-30T08:40:27.873Z,16.2
2023-03-30T08:41:30.008Z,16.2
2023-03-30T08:42:31.880Z,16.1
2023-03-30T08:43:33.791Z,16.1
2023-03-30T08:44:35.893Z,16.2
2023-03-30T08:45:41.927Z,16.1
2023-03-30T08:46:45.469Z,16.2
2023-03-30T08:47:47.717Z,16.2
2023-03-30T08:48:50.110Z,16.1
2023-03-30T08:49:52.225Z,16.1
2023-03-30T08:50:54.154Z,16.1
2023-03-30T08:51:56.078Z,16.1
2023-03-30T08:52:58.276Z,16.2
2023-03-30T08:54:00.403Z,16.1
2023-03-30T08:55:02.552Z,16.2
2023-03-30T08:56:04.676Z,16.1
2023-03-30T08:57:06.697Z,16.1
2023-03-30T08:58:09.074Z,16.2
2023-03-30T08:59:11.207Z,16.2
2023-03-30T09:00:13.035Z,16.2
2023-03-30T09:01:15.326Z,16.1
2023-03-30T09:02:17.551Z,16.2
2023-03-30T09:03:20.163Z,16.1
2023-03-30T09:04:22.490Z,16.2
2023-03-30T09:05:24.491Z,16.1
2023-03-30T09:06:26.960Z,16.2
2023-03-30T09:07:29.081Z,16.1
2023-03-30T09:08:31.203Z,16.1
2023-03-30T09:09:33.162Z,16.1
2023-03-30T09:10:35.126Z,16.1
2023-03-30T09:11:37.215Z,16.1
2023-03-30T09:12:39.347Z,16.1
2023-03-30T09:13:41.834Z,16.1
2023-03-30T09:14:43.933Z,16.1
2023-03-30T09:15:45.661Z,16.2
2023-03-30T09:16:47.640Z,16.1
2023-03-30T09:17:50.103Z,16.2
2023-03-30T09:18:52.534Z,16.3
2023-03-30T09:19:54.256Z,16.2
2023-03-30T09:20:56.412Z,16.1
2023-03-30T09:21:58.348Z,16.1
2023-03-30T09:23:00.232Z,16.2
2023-03-30T09:24:01.974Z,16.2
2023-03-30T09:25:03.858Z,16.2
2023-03-30T09:26:06.034Z,16.2
2023-03-30T09:27:07.976Z,16.1
2023-03-30T09:28:10.124Z,16.1
2023-03-30T09:29:12.229Z,16.2
2023-03-30T09:30:14.346Z,16.1
2023-03-30T09:31:16.826Z,16.2
2023-03-30T09:32:23.200Z,16.1
2023-03-30T09:33:25.285Z,16.2
2023-03-30T09:34:27.324Z,16.2
2023-03-30T09:35:29.467Z,16.2
2023-03-30T09:36:31.642Z,16.1
2023-03-30T09:37:33.745Z,16.2
2023-03-30T09:38:35.685Z,16.2
2023-03-30T09:39:37.355Z,16.2
2023-03-30T09:40:39.292Z,16.2
2023-03-30T09:41:41.392Z,16.2
2023-03-30T09:42:43.304Z,16.1
2023-03-30T09:43:45.415Z,16.2
2023-03-30T09:44:47.627Z,16.1
2023-03-30T09:45:49.792Z,16.1
2023-03-30T09:46:51.814Z,16.2
2023-03-30T09:47:53.594Z,16.2
2023-03-30T09:48:55.977Z,16.1
2023-03-30T09:49:58.153Z,16.1
2023-03-30T09:51:00.266Z,16.2
2023-03-30T09:52:01.958Z,16.1
2023-03-30T09:53:03.890Z,16.2
2023-03-30T09:54:05.781Z,16.2
2023-03-30T09:55:07.739Z,16.2
2023-03-30T09:56:09.828Z,16.1
2023-03-30T09:57:12.006Z,16.2
2023-03-30T09:58:14.049Z,16.2
2023-03-30T09:59:16.182Z,16.1
2023-03-30T10:00:18.137Z,16.2
2023-03-30T10:01:20.453Z,16.2
2023-03-30T10:02:22.916Z,16.2
2023-03-30T10:03:25.584Z,16.2
2023-03-30T10:04:28.267Z,16.1
2023-03-30T10:05:30.712Z,16.1
2023-03-30T10:06:32.794Z,16.2
2023-03-30T10:07:34.902Z,16.2
2023-03-30T10:08:37.001Z,16.2
2023-03-30T10:09:39.280Z,16.2
2023-03-30T10:10:41.382Z,16.1
2023-03-30T10:11:43.490Z,16.1
2023-03-30T10:12:45.579Z,16.2
2023-03-30T10:13:47.494Z,16.1
2023-03-30T10:14:49.602Z,16.1
2023-03-30T10:15:51.536Z,16.1
2023-03-30T10:16:53.606Z,16.1
2023-03-30T10:17:56.051Z,16.1
2023-03-30T10:18:58.504Z,16.2
2023-03-30T10:21:05.435Z,16.2
2023-03-30T10:22:07.602Z,16.2
2023-03-30T10:23:09.663Z,16.1
2023-03-30T10:24:11.760Z,16.1
2023-03-30T10:25:13.649Z,16.1
2023-03-30T10:26:15.564Z,16.2
2023-03-30T10:27:17.689Z,16.2
2023-03-30T10:28:19.578Z,16.1
2023-03-30T10:29:21.487Z,16.3
2023-03-30T10:30:23.620Z,16.2
2023-03-30T10:32:30.791Z,16.2
2023-03-30T10:33:32.739Z,16.1
2023-03-30T10:34:34.432Z,16.2
2023-03-30T10:35:36.655Z,16.1
2023-03-30T10:36:39.117Z,16.1
2023-03-30T10:37:41.328Z,16.2
2023-03-30T10:38:43.409Z,16.2
2023-03-30T10:39:45.489Z,16.1
2023-03-30T10:40:47.229Z,16.2
2023-03-30T10:41:49.303Z,16.2
2023-03-30T10:42:51.421Z,16.1
2023-03-30T10:43:53.333Z,16.2
2023-03-30T10:44:55.410Z,16.3
2023-03-30T10:47:02.590Z,16.2
2023-03-30T10:48:04.967Z,16.1
2023-03-30T10:49:07.031Z,16.2
2023-03-30T10:50:09.184Z,16.2
2023-03-30T10:51:11.146Z,16.1
2023-03-30T10:52:13.766Z,16.3
2023-03-30T10:53:15.962Z,16.1
2023-03-30T10:54:18.074Z,16.2
2023-03-30T10:55:19.964Z,16.1
2023-03-30T10:56:22.117Z,16.2
2023-03-30T10:57:24.783Z,16.1
2023-03-30T10:58:27.124Z,16.1
2023-03-30T10:59:29.055Z,16.1
2023-03-30T11:00:31.136Z,16.2
2023-03-30T11:01:33.065Z,16.3
2023-03-30T11:02:35.539Z,16.2
2023-03-30T11:03:38.177Z,16.1
2023-03-30T11:04:40.484Z,16.1
2023-03-30T11:05:42.576Z,16.1
2023-03-30T11:06:44.502Z,16.2
2023-03-30T11:07:46.652Z,16.1
2023-03-30T11:08:48.985Z,16.2
2023-03-30T11:09:50.470Z,16.1
2023-03-30T11:10:52.129Z,16.1
2023-03-30T11:11:54.491Z,16.2
2023-03-30T11:12:56.419Z,16.1
2023-03-30T11:13:58.347Z,16.1
2023-03-30T11:15:00.436Z,16.1
2023-03-30T11:16:02.996Z,16.2
2023-03-30T11:17:06.402Z,16.2
2023-03-30T11:18:08.516Z,16.2
2023-03-30T11:19:11.073Z,16.2
2023-03-30T11:20:13.156Z,16.1
2023-03-30T11:21:14.914Z,16.2
2023-03-30T11:22:16.851Z,16.2
2023-03-30T11:23:18.797Z,16.1
2023-03-30T11:24:21.025Z,16.2
2023-03-30T11:25:23.166Z,16.2
2023-03-30T11:26:25.262Z,16.2
2023-03-30T11:27:27.205Z,16.2
2023-03-30T11:28:29.291Z,16.1
2023-03-30T11:29:31.387Z,16.1
2023-03-30T11:30:33.510Z,16.2
2023-03-30T11:31:35.737Z,16.2
2023-03-30T11:32:37.918Z,16.2
2023-03-30T11:33:39.958Z,16.1
2023-03-30T11:34:42.512Z,16.1
2023-03-30T11:35:44.501Z,16.1
2023-03-30T11:36:46.575Z,16.2
2023-03-30T11:37:48.722Z,16.2
2023-03-30T11:38:50.857Z,16.2
2023-03-30T11:39:53.095Z,16.2
2023-03-30T11:40:54.999Z,16.1
2023-03-30T11:41:57.132Z,16.2
2023-03-30T11:42:59.272Z,16.1
2023-03-30T11:44:01.202Z,16.1
2023-03-30T11:45:03.202Z,16.1
2023-03-30T11:46:05.244Z,16.1
2023-03-30T11:47:08.982Z,16.2
2023-03-30T11:48:11.219Z,16.2
2023-03-30T11:49:13.977Z,16.2
2023-03-30T11:50:15.948Z,16.1
2023-03-30T11:51:18.057Z,16.2
2023-03-30T11:52:19.966Z,16.2
2023-03-30T11:53:22.082Z,16.1
2023-03-30T11:54:24.142Z,16.2
2023-03-30T11:55:26.319Z,16.1
2023-03-30T11:56:28.055Z,16.1
2023-03-30T11:57:30.374Z,16.1
2023-03-30T11:58:32.708Z,16.1
2023-03-30T11:59:34.826Z,16.2
2023-03-30T12:00:36.761Z,16.2
2023-03-30T12:01:38.663Z,16.2
2023-03-30T12:02:40.738Z,16.2
2023-03-30T12:03:43.708Z,16.1
2023-03-30T12:04:46.814Z,16.2
2023-03-30T12:05:49.125Z,16.1
2023-03-30T12:06:51.225Z,16.2
2023-03-30T12:07:53.387Z,16.2
2023-03-30T12:08:55.682Z,16.1
2023-03-30T12:10:01.897Z,16.2
2023-03-30T12:11:05.394Z,16.2
2023-03-30T12:12:08.513Z,16.1
2023-03-30T12:13:10.432Z,16.2
2023-03-30T12:14:12.343Z,16.2
2023-03-30T12:15:14.433Z,16.1
2023-03-30T12:16:16.621Z,16.2
2023-03-30T12:17:18.950Z,16.1
2023-03-30T12:18:21.060Z,16.1
2023-03-30T12:19:22.769Z,16.1
2023-03-30T12:20:24.858Z,16.2
2023-03-30T12:21:26.754Z,16.2
2023-03-30T12:22:28.693Z,16.1
2023-03-30T12:23:30.578Z,16.2
2023-03-30T12:24:32.493Z,16.1
2023-03-30T12:25:34.654Z,16.2
2023-03-30T12:26:36.648Z,16.2
2023-03-30T12:27:38.668Z,16.1
2023-03-30T12:30:50.749Z,16.2
2023-03-30T12:31:53.190Z,16.1
2023-03-30T12:32:55.775Z,16.1
2023-03-30T12:33:57.843Z,16.2
2023-03-30T12:34:59.632Z,16.1
2023-03-30T12:36:01.952Z,16.2
2023-03-30T12:37:05.272Z,16.2
2023-03-30T12:38:07.177Z,16.1
2023-03-30T12:39:09.270Z,16.2
2023-03-30T12:40:11.365Z,16.2
2023-03-30T12:41:13.097Z,16.2
2023-03-30T12:42:15.418Z,16.2
2023-03-30T12:43:17.456Z,16.2
2023-03-30T12:44:19.390Z,16.1
2023-03-30T12:45:21.498Z,16.2
2023-03-30T12:46:23.513Z,16.2
2023-03-30T12:47:26.007Z,16.1
2023-03-30T12:48:28.266Z,16.1
2023-03-30T12:49:30.380Z,16.2
2023-03-30T12:50:32.471Z,16.2
2023-03-30T12:51:34.399Z,16.2
2023-03-30T12:52:36.676Z,16.1
2023-03-30T12:53:38.637Z,16.2
2023-03-30T12:54:40.784Z,16.2
2023-03-30T12:55:42.926Z,16.2
2023-03-30T12:56:44.885Z,16.1
2023-03-30T12:57:46.928Z,16.1
2023-03-30T12:58:49.131Z,16.1
2023-03-30T12:59:51.020Z,16.2
2023-03-30T13:00:53.205Z,16.2
2023-03-30T13:01:55.208Z,16.2
2023-03-30T13:02:57.034Z,16.2
2023-03-30T13:03:59.450Z,16.1
2023-03-30T13:05:01.750Z,16.2
2023-03-30T13:06:04.617Z,16.2
2023-03-30T13:07:07.703Z,16.1
2023-03-30T13:08:09.607Z,16.1
2023-03-30T13:09:11.858Z,16.2
2023-03-30T13:10:14.026Z,16.2
2023-03-30T13:11:16.152Z,16.2
2023-03-30T13:12:18.303Z,16.1
2023-03-30T13:13:20.389Z,16.2
2023-03-30T13:14:22.589Z,16.2
2023-03-30T13:15:24.713Z,16
2023-03-30T13:16:26.881Z,16.2
2023-03-30T13:17:29.342Z,16.2
2023-03-30T13:18:31.390Z,16.1
2023-03-30T13:19:33.862Z,16.1
2023-03-30T13:20:36.140Z,16.2
2023-03-30T13:21:38.260Z,16.2
2023-03-30T13:22:40.193Z,16.2
2023-03-30T13:23:42.273Z,16.1
2023-03-30T13:24:44.156Z,16.2
2023-03-30T13:25:46.265Z,16.1
2023-03-30T13:26:48.389Z,16.1
2023-03-30T13:27:50.515Z,16.1
2023-03-30T13:28:52.395Z,16.2
2023-03-30T13:29:54.431Z,16.1
2023-03-30T13:30:56.528Z,16.1
2023-03-30T13:31:58.728Z,16.2
2023-03-30T13:33:01.372Z,16.1
2023-03-30T13:34:03.725Z,16.2
2023-03-30T13:35:08.247Z,16.1
2023-03-30T13:36:10.388Z,16.2
2023-03-30T13:37:12.680Z,16.2
2023-03-30T13:38:14.633Z,16.1
2023-03-30T13:39:16.566Z,16.2
2023-03-30T13:41:23.226Z,16.2
2023-03-30T13:42:25.018Z,16.2
2023-03-30T13:43:27.083Z,16.2
2023-03-30T13:44:29.188Z,16.2
2023-03-30T13:45:31.412Z,16.2
2023-03-30T13:46:33.716Z,16.2
2023-03-30T13:47:35.963Z,16.2
2023-03-30T13:48:38.219Z,16.2
2023-03-30T13:49:40.349Z,16.2
2023-03-30T13:50:42.414Z,16.1
2023-03-30T13:51:44.129Z,16.2
2023-03-30T13:52:46.059Z,16.1
2023-03-30T13:53:48.200Z,16.2
2023-03-30T13:54:50.249Z,16.2
2023-03-30T13:55:52.343Z,16.1
2023-03-30T13:56:54.499Z,16.2
2023-03-30T13:57:56.648Z,16.1